createdAt,value
2017-09-09T00:00:15.231Z,15.14
2017-09-09T00:01:14.423Z,15.18
2017-09-09T00:02:14.424Z,15.17
2017-09-09T00:03:14.786Z,15.11
2017-09-09T00:04:14.420Z,15.11
2017-09-09T00:05:16.098Z,15.19
2017-09-09T00:06:14.419Z,15.15
2017-09-09T00:07:14.419Z,15.02
2017-09-09T00:08:14.726Z,15.07
2017-09-09T00:09:14.115Z,15.02
2017-09-09T00:10:15.523Z,15.06
2017-09-09T00:11:14.120Z,15.09
2017-09-09T00:12:14.419Z,14.99
2017-09-09T00:13:14.727Z,14.91
2017-09-09T00:14:14.729Z,15
2017-09-09T00:15:15.417Z,14.99
2017-09-09T00:16:14.424Z,14.88
2017-09-09T00:17:14.467Z,15.02
2017-09-09T00:18:14.456Z,14.94
2017-09-09T00:19:14.119Z,14.91
2017-09-09T00:20:15.164Z,14.92
2017-09-09T00:21:14.410Z,14.86
2017-09-09T00:22:14.411Z,14.94
2017-09-09T00:23:14.724Z,14.86
2017-09-09T00:24:14.412Z,14.92
2017-09-09T00:25:15.255Z,14.92
2017-09-09T00:26:14.719Z,14.91
2017-09-09T00:27:14.100Z,14.91
2017-09-09T00:28:14.108Z,14.81
2017-09-09T00:29:14.410Z,14.88
2017-09-09T00:30:15.656Z,14.88
2017-09-09T00:31:14.732Z,14.81
2017-09-09T00:32:14.720Z,14.85
2017-09-09T00:33:14.732Z,14.79
2017-09-09T00:34:14.095Z,14.88
2017-09-09T00:35:15.666Z,14.68
2017-09-09T00:36:14.445Z,14.69
2017-09-09T00:37:14.454Z,14.65
2017-09-09T00:38:14.711Z,14.66
2017-09-09T00:39:14.410Z,14.59
2017-09-09T00:40:15.154Z,14.63
2017-09-09T00:41:14.404Z,14.63
2017-09-09T00:42:14.754Z,14.58
2017-09-09T00:43:14.395Z,14.5
2017-09-09T00:44:14.397Z,14.44
2017-09-09T00:45:15.794Z,14.45
2017-09-09T00:46:14.084Z,14.41
2017-09-09T00:47:14.390Z,14.36
2017-09-09T00:48:14.710Z,14.36
2017-09-09T00:49:14.708Z,14.36
2017-09-09T00:50:14.785Z,14.35
2017-09-09T00:51:14.393Z,14.22
2017-09-09T00:52:14.389Z,14.23
2017-09-09T00:53:14.388Z,14.2
2017-09-09T00:54:14.697Z,14.15
2017-09-09T00:55:15.273Z,14.14
2017-09-09T00:56:14.384Z,14.15
2017-09-09T00:57:14.686Z,14.18
2017-09-09T00:58:14.384Z,14.18
2017-09-09T00:59:14.387Z,14.2
2017-09-09T01:00:16.006Z,14.22
2017-09-09T01:01:14.386Z,14.22
2017-09-09T01:02:14.073Z,14.03
2017-09-09T01:03:14.381Z,14.14
2017-09-09T01:04:14.689Z,14.12
2017-09-09T01:05:15.663Z,14
2017-09-09T01:06:14.386Z,13.92
2017-09-09T01:07:14.370Z,13.9
2017-09-09T01:08:14.680Z,13.95
2017-09-09T01:09:14.072Z,13.92
2017-09-09T01:10:15.889Z,13.89
2017-09-09T01:11:14.057Z,13.85
2017-09-09T01:12:14.683Z,13.93
2017-09-09T01:13:14.670Z,13.95
2017-09-09T01:14:14.685Z,13.86
2017-09-09T01:15:15.323Z,13.83
2017-09-09T01:16:14.674Z,13.87
2017-09-09T01:17:14.682Z,13.81
2017-09-09T01:18:14.680Z,13.81
2017-09-09T01:19:14.675Z,13.9
2017-09-09T01:20:15.435Z,13.83
2017-09-09T01:21:14.351Z,13.85
2017-09-09T01:22:14.346Z,13.9
2017-09-09T01:23:14.343Z,13.81
2017-09-09T01:24:14.035Z,13.79
2017-09-09T01:25:15.941Z,13.78
2017-09-09T01:26:14.341Z,13.83
2017-09-09T01:27:14.653Z,13.74
2017-09-09T01:28:14.653Z,13.68
2017-09-09T01:29:14.653Z,13.68
2017-09-09T01:30:15.891Z,13.71
2017-09-09T01:31:14.328Z,13.67
2017-09-09T01:32:14.647Z,13.65
2017-09-09T01:33:14.330Z,13.67
2017-09-09T01:34:14.330Z,13.68
2017-09-09T01:35:16.417Z,13.72
2017-09-09T01:36:14.318Z,13.7
2017-09-09T01:37:14.334Z,13.81
2017-09-09T01:38:14.321Z,13.83
2017-09-09T01:39:14.629Z,13.81
2017-09-09T01:40:16.139Z,13.78
2017-09-09T01:41:14.324Z,13.81
2017-09-09T01:42:14.321Z,13.85
2017-09-09T01:43:14.315Z,13.92
2017-09-09T01:44:14.625Z,13.79
2017-09-09T01:45:14.477Z,13.9
2017-09-09T01:46:14.617Z,13.9
2017-09-09T01:47:14.615Z,13.79
2017-09-09T01:48:14.614Z,13.86
2017-09-09T01:49:14.306Z,13.83
2017-09-09T01:50:15.071Z,13.92
2017-09-09T01:51:15.041Z,13.83
2017-09-09T01:52:14.602Z,13.81
2017-09-09T01:53:14.503Z,13.78
2017-09-09T01:54:13.987Z,13.78
2017-09-09T01:55:16.195Z,13.78
2017-09-09T01:56:14.648Z,13.79
2017-09-09T01:57:14.623Z,13.75
2017-09-09T01:58:14.631Z,13.85
2017-09-09T01:59:14.589Z,13.89
2017-09-09T02:00:16.115Z,13.89
2017-09-09T02:01:13.967Z,13.9
2017-09-09T02:02:14.591Z,13.9
2017-09-09T02:03:13.970Z,13.81
2017-09-09T02:04:13.964Z,13.83
2017-09-09T02:05:14.868Z,13.79
2017-09-09T02:06:14.282Z,13.83
2017-09-09T02:07:13.956Z,13.81
2017-09-09T02:08:14.276Z,13.81
2017-09-09T02:09:14.570Z,13.78
2017-09-09T02:10:15.480Z,13.65
2017-09-09T02:11:13.951Z,13.68
2017-09-09T02:12:14.261Z,13.67
2017-09-09T02:13:14.265Z,13.75
2017-09-09T02:14:14.263Z,13.81
2017-09-09T02:15:16.037Z,13.83
2017-09-09T02:16:14.574Z,13.85
2017-09-09T02:17:14.553Z,13.85
2017-09-09T02:18:14.292Z,13.81
2017-09-09T02:19:14.245Z,13.79
2017-09-09T02:20:15.675Z,13.79
2017-09-09T02:21:14.266Z,13.92
2017-09-09T02:22:14.248Z,13.86
2017-09-09T02:23:14.577Z,13.93
2017-09-09T02:24:14.247Z,13.87
2017-09-09T02:25:15.675Z,13.93
2017-09-09T02:26:13.928Z,13.93
2017-09-09T02:27:14.241Z,13.93
2017-09-09T02:28:14.547Z,13.87
2017-09-09T02:29:13.925Z,13.9
2017-09-09T02:30:15.252Z,13.95
2017-09-09T02:31:14.546Z,13.95
2017-09-09T02:32:14.226Z,13.78
2017-09-09T02:33:14.542Z,13.9
2017-09-09T02:34:14.550Z,13.92
2017-09-09T02:35:15.853Z,13.96
2017-09-09T02:36:14.532Z,13.95
2017-09-09T02:37:14.231Z,13.93
2017-09-09T02:38:13.918Z,13.95
2017-09-09T02:39:14.531Z,13.96
2017-09-09T02:40:15.416Z,13.95
2017-09-09T02:41:14.219Z,13.92
2017-09-09T02:42:14.228Z,14
2017-09-09T02:43:14.569Z,14.07
2017-09-09T02:44:14.563Z,14.1
2017-09-09T02:45:15.934Z,14.04
2017-09-09T02:46:14.220Z,14.07
2017-09-09T02:47:14.519Z,13.95
2017-09-09T02:48:14.218Z,14.04
2017-09-09T02:49:14.531Z,14.08
2017-09-09T02:50:15.558Z,14.18
2017-09-09T02:51:14.240Z,14.25
2017-09-09T02:52:14.214Z,14.28
2017-09-09T02:53:14.522Z,14.15
2017-09-09T02:54:14.524Z,14.23
2017-09-09T02:55:15.954Z,14.28
2017-09-09T02:56:14.535Z,14.28
2017-09-09T02:57:13.896Z,14.23
2017-09-09T02:58:14.195Z,14.18
2017-09-09T02:59:14.199Z,14.23
2017-09-09T03:00:15.365Z,14.26
2017-09-09T03:01:14.502Z,14.28
2017-09-09T03:02:14.519Z,14.22
2017-09-09T03:03:14.201Z,14.3
2017-09-09T03:04:14.503Z,14.29
2017-09-09T03:05:16.151Z,14.17
2017-09-09T03:06:14.497Z,14.22
2017-09-09T03:07:14.499Z,14.2
2017-09-09T03:08:13.879Z,14.18
2017-09-09T03:09:14.190Z,14.2
2017-09-09T03:10:15.562Z,14.17
2017-09-09T03:11:14.498Z,14.17
2017-09-09T03:12:14.497Z,14.17
2017-09-09T03:13:14.182Z,14.11
2017-09-09T03:14:14.489Z,13.99
2017-09-09T03:15:14.716Z,13.93
2017-09-09T03:16:14.178Z,13.93
2017-09-09T03:17:13.872Z,13.95
2017-09-09T03:18:14.176Z,14.05
2017-09-09T03:19:14.170Z,14.14
2017-09-09T03:20:15.109Z,14.08
2017-09-09T03:21:14.519Z,13.93
2017-09-09T03:22:14.498Z,13.92
2017-09-09T03:23:14.480Z,14.07
2017-09-09T03:24:14.479Z,14.05
2017-09-09T03:25:15.426Z,14.1
2017-09-09T03:26:14.479Z,14.14
2017-09-09T03:27:14.178Z,14.08
2017-09-09T03:28:14.160Z,14.08
2017-09-09T03:29:13.846Z,13.99
2017-09-09T03:30:15.227Z,14.1
2017-09-09T03:31:14.473Z,14.07
2017-09-09T03:32:14.153Z,14.08
2017-09-09T03:33:14.461Z,14.12
2017-09-09T03:34:13.841Z,14.11
2017-09-09T03:35:15.227Z,14.14
2017-09-09T03:36:14.149Z,14.23
2017-09-09T03:37:13.835Z,14.07
2017-09-09T03:38:14.145Z,14.05
2017-09-09T03:39:14.144Z,14.08
2017-09-09T03:40:14.808Z,14.07
2017-09-09T03:41:14.459Z,14.08
2017-09-09T03:42:14.449Z,14.18
2017-09-09T03:43:14.448Z,14.15
2017-09-09T03:44:14.451Z,14.17
2017-09-09T03:45:15.201Z,14.2
2017-09-09T03:46:14.443Z,14.14
2017-09-09T03:47:14.132Z,14.11
2017-09-09T03:48:14.132Z,14.1
2017-09-09T03:49:14.440Z,14.15
2017-09-09T03:50:15.840Z,14.12
2017-09-09T03:51:14.435Z,14.14
2017-09-09T03:52:14.439Z,14.17
2017-09-09T03:53:14.434Z,14.22
2017-09-09T03:54:14.445Z,14.23
2017-09-09T03:55:15.078Z,14.18
2017-09-09T03:56:14.430Z,14.14
2017-09-09T03:57:14.156Z,14.14
2017-09-09T03:58:14.435Z,14.08
2017-09-09T03:59:14.429Z,14.07
2017-09-09T04:00:15.643Z,14.11
2017-09-09T04:01:14.426Z,14.1
2017-09-09T04:02:14.426Z,13.97
2017-09-09T04:03:14.112Z,14.05
2017-09-09T04:04:13.811Z,13.93
2017-09-09T04:05:15.642Z,14
2017-09-09T04:06:14.421Z,13.99
2017-09-09T04:07:14.420Z,14.03
2017-09-09T04:08:14.116Z,13.93
2017-09-09T04:09:14.413Z,13.95
2017-09-09T04:10:15.500Z,14.08
2017-09-09T04:11:14.414Z,14.12
2017-09-09T04:12:13.802Z,14.11
2017-09-09T04:13:14.107Z,14.14
2017-09-09T04:14:14.111Z,14.2
2017-09-09T04:15:15.770Z,14.14
2017-09-09T04:16:14.100Z,14.25
2017-09-09T04:17:14.410Z,14.15
2017-09-09T04:18:14.405Z,14.18
2017-09-09T04:19:14.119Z,14.2
2017-09-09T04:20:15.314Z,14.28
2017-09-09T04:21:14.405Z,14.33
2017-09-09T04:22:14.098Z,14.3
2017-09-09T04:23:14.092Z,14.22
2017-09-09T04:24:14.086Z,14.22
2017-09-09T04:25:14.881Z,14.18
2017-09-09T04:26:14.089Z,14.3
2017-09-09T04:27:13.788Z,14.2
2017-09-09T04:28:14.106Z,14.26
2017-09-09T04:29:14.393Z,14.35
2017-09-09T04:30:15.012Z,14.4
2017-09-09T04:31:14.078Z,14.35
2017-09-09T04:32:14.390Z,14.43
2017-09-09T04:33:14.092Z,14.26
2017-09-09T04:34:14.077Z,14.17
2017-09-09T04:35:15.396Z,14.11
2017-09-09T04:36:14.080Z,14.04
2017-09-09T04:37:14.079Z,14.07
2017-09-09T04:38:13.770Z,14.03
2017-09-09T04:39:13.773Z,13.95
2017-09-09T04:40:15.210Z,13.95
2017-09-09T04:41:14.081Z,13.95
2017-09-09T04:42:14.067Z,13.99
2017-09-09T04:43:14.376Z,13.93
2017-09-09T04:44:13.762Z,13.9
2017-09-09T04:45:15.501Z,13.92
2017-09-09T04:46:14.064Z,14.07
2017-09-09T04:47:14.068Z,13.99
2017-09-09T04:48:14.380Z,13.95
2017-09-09T04:49:13.752Z,13.95
2017-09-09T04:50:16.195Z,13.96
2017-09-09T04:51:14.056Z,14.05
2017-09-09T04:52:14.367Z,14.05
2017-09-09T04:53:14.358Z,14.1
2017-09-09T04:54:14.362Z,14.2
2017-09-09T04:55:15.167Z,14.18
2017-09-09T04:56:14.049Z,14.23
2017-09-09T04:57:14.355Z,14.23
2017-09-09T04:58:14.045Z,14.23
2017-09-09T04:59:14.042Z,14.32
2017-09-09T05:00:15.137Z,14.36
2017-09-09T05:01:14.039Z,14.53
2017-09-09T05:02:14.353Z,14.5
2017-09-09T05:03:14.038Z,14.48
2017-09-09T05:04:14.345Z,14.48
2017-09-09T05:05:15.115Z,14.54
2017-09-09T05:06:14.034Z,14.45
2017-09-09T05:07:14.355Z,14.44
2017-09-09T05:08:14.036Z,14.51
2017-09-09T05:09:14.032Z,14.54
2017-09-09T05:10:15.107Z,14.65
2017-09-09T05:11:14.362Z,14.58
2017-09-09T05:12:14.028Z,14.58
2017-09-09T05:13:14.026Z,14.51
2017-09-09T05:14:14.024Z,14.5
2017-09-09T05:15:14.962Z,14.41
2017-09-09T05:16:14.375Z,14.35
2017-09-09T05:17:14.334Z,14.29
2017-09-09T05:18:14.332Z,14.28
2017-09-09T05:19:14.038Z,14.35
2017-09-09T05:20:15.831Z,14.33
2017-09-09T05:21:14.328Z,14.4
2017-09-09T05:22:14.020Z,14.48
2017-09-09T05:23:14.021Z,14.44
2017-09-09T05:24:14.016Z,14.53
2017-09-09T05:25:15.124Z,14.5
2017-09-09T05:26:14.328Z,14.54
2017-09-09T05:27:14.012Z,14.51
2017-09-09T05:28:14.330Z,14.53
2017-09-09T05:29:14.321Z,14.53
2017-09-09T05:30:15.555Z,14.53
2017-09-09T05:31:14.332Z,14.55
2017-09-09T05:32:14.322Z,14.6
2017-09-09T05:33:14.322Z,14.63
2017-09-09T05:34:13.702Z,14.53
2017-09-09T05:35:14.763Z,14.63
2017-09-09T05:36:13.705Z,14.55
2017-09-09T05:37:14.318Z,14.54
2017-09-09T05:38:13.706Z,14.54
2017-09-09T05:39:14.003Z,14.51
2017-09-09T05:40:15.698Z,14.48
2017-09-09T05:41:14.310Z,14.54
2017-09-09T05:42:14.000Z,14.54
2017-09-09T05:43:14.313Z,14.55
2017-09-09T05:44:14.316Z,14.65
2017-09-09T05:45:15.504Z,14.55
2017-09-09T05:46:14.312Z,14.65
2017-09-09T05:47:14.326Z,14.65
2017-09-09T05:48:14.316Z,14.65
2017-09-09T05:49:13.686Z,14.6
2017-09-09T05:50:15.825Z,14.59
2017-09-09T05:51:14.307Z,14.62
2017-09-09T05:52:14.300Z,14.54
2017-09-09T05:53:13.992Z,14.66
2017-09-09T05:54:14.300Z,14.6
2017-09-09T05:55:15.376Z,14.63
2017-09-09T05:56:14.313Z,14.58
2017-09-09T05:57:13.686Z,14.6
2017-09-09T05:58:13.995Z,14.63
2017-09-09T05:59:14.304Z,14.58
2017-09-09T06:00:15.953Z,14.59
2017-09-09T06:01:14.001Z,14.66
2017-09-09T06:02:13.986Z,14.62
2017-09-09T06:03:13.984Z,14.59
2017-09-09T06:04:13.992Z,14.63
2017-09-09T06:05:16.097Z,14.69
2017-09-09T06:06:13.984Z,14.66
2017-09-09T06:07:14.299Z,14.66
2017-09-09T06:08:13.984Z,14.66
2017-09-09T06:09:14.286Z,14.79
2017-09-09T06:10:17.547Z,14.73
2017-09-09T06:11:13.991Z,14.77
2017-09-09T06:12:14.291Z,14.69
2017-09-09T06:13:13.986Z,14.7
2017-09-09T06:14:14.294Z,14.69
2017-09-09T06:15:15.887Z,14.68
2017-09-09T06:16:13.988Z,14.6
2017-09-09T06:17:14.297Z,14.6
2017-09-09T06:18:14.285Z,14.63
2017-09-09T06:19:13.976Z,14.66
2017-09-09T06:20:15.047Z,14.68
2017-09-09T06:21:14.283Z,14.66
2017-09-09T06:22:14.324Z,14.7
2017-09-09T06:23:14.281Z,14.79
2017-09-09T06:24:13.975Z,14.82
2017-09-09T06:25:15.737Z,14.69
2017-09-09T06:26:13.979Z,14.66
2017-09-09T06:27:14.284Z,14.66
2017-09-09T06:28:13.975Z,14.48
2017-09-09T06:29:14.283Z,14.44
2017-09-09T06:30:14.923Z,14.5
2017-09-09T06:31:14.287Z,14.45
2017-09-09T06:32:13.964Z,14.47
2017-09-09T06:33:13.975Z,14.54
2017-09-09T06:34:13.667Z,14.6
2017-09-09T06:35:14.449Z,14.55
2017-09-09T06:36:14.271Z,14.66
2017-09-09T06:37:13.971Z,14.65
2017-09-09T06:38:13.979Z,14.66
2017-09-09T06:39:14.278Z,14.78
2017-09-09T06:40:15.269Z,14.78
2017-09-09T06:41:14.272Z,14.89
2017-09-09T06:42:13.961Z,14.91
2017-09-09T06:43:14.274Z,14.99
2017-09-09T06:44:13.960Z,14.88
2017-09-09T06:45:15.464Z,14.94
2017-09-09T06:46:14.272Z,15
2017-09-09T06:47:13.957Z,15.03
2017-09-09T06:48:13.961Z,15.04
2017-09-09T06:49:14.270Z,15.11
2017-09-09T06:50:15.411Z,15.18
2017-09-09T06:51:14.262Z,15.14
2017-09-09T06:52:13.960Z,15.19
2017-09-09T06:53:14.264Z,15.21
2017-09-09T06:54:14.264Z,15.15
2017-09-09T06:55:15.500Z,15.21
2017-09-09T06:56:13.645Z,15.24
2017-09-09T06:57:13.650Z,15.27
2017-09-09T06:58:13.649Z,15.27
2017-09-09T06:59:14.260Z,15.29
2017-09-09T07:00:14.771Z,15.29
2017-09-09T07:01:13.949Z,15.29
2017-09-09T07:02:13.966Z,15.27
2017-09-09T07:03:14.290Z,15.27
2017-09-09T07:04:13.962Z,15.29
2017-09-09T07:05:15.097Z,15.27
2017-09-09T07:06:13.982Z,15.24
2017-09-09T07:07:14.292Z,15.21
2017-09-09T07:08:14.262Z,15.17
2017-09-09T07:09:14.266Z,15.11
2017-09-09T07:10:14.707Z,15.22
2017-09-09T07:11:14.266Z,15.15
2017-09-09T07:12:13.950Z,15.22
2017-09-09T07:13:13.956Z,15.25
2017-09-09T07:14:13.953Z,15.19
2017-09-09T07:15:14.275Z,15.19
2017-09-09T07:16:13.958Z,15.24
2017-09-09T07:17:14.255Z,15.24
2017-09-09T07:18:13.952Z,15.21
2017-09-09T07:19:13.948Z,15.11
2017-09-09T07:20:15.306Z,15.19
2017-09-09T07:21:13.951Z,15.09
2017-09-09T07:22:14.259Z,15.15
2017-09-09T07:23:14.252Z,15.04
2017-09-09T07:24:14.266Z,15.15
2017-09-09T07:25:15.075Z,15.18
2017-09-09T07:26:14.248Z,15.1
2017-09-09T07:27:14.259Z,15.18
2017-09-09T07:28:13.943Z,15.28
2017-09-09T07:29:14.248Z,15.21
2017-09-09T07:30:15.697Z,15.19
2017-09-09T07:31:14.250Z,15.17
2017-09-09T07:32:13.939Z,15.15
2017-09-09T07:33:13.941Z,14.99
2017-09-09T07:34:13.948Z,15
2017-09-09T07:35:14.851Z,14.91
2017-09-09T07:36:14.280Z,14.99
2017-09-09T07:37:13.945Z,14.91
2017-09-09T07:38:13.933Z,14.89
2017-09-09T07:39:13.936Z,15.02
2017-09-09T07:40:14.993Z,14.97
2017-09-09T07:41:13.937Z,14.86
2017-09-09T07:42:14.248Z,14.92
2017-09-09T07:43:13.936Z,14.97
2017-09-09T07:44:13.936Z,14.96
2017-09-09T07:45:14.718Z,15.03
2017-09-09T07:46:14.241Z,15.11
2017-09-09T07:47:13.934Z,15.17
2017-09-09T07:48:14.250Z,15.31
2017-09-09T07:49:13.933Z,15.27
2017-09-09T07:50:14.594Z,15.31
2017-09-09T07:51:13.937Z,15.35
2017-09-09T07:52:14.245Z,15.28
2017-09-09T07:53:14.257Z,15.22
2017-09-09T07:54:13.619Z,15.24
2017-09-09T07:55:15.767Z,15.27
2017-09-09T07:56:13.928Z,15.24
2017-09-09T07:57:13.939Z,15.22
2017-09-09T07:58:13.930Z,15.24
2017-09-09T07:59:14.234Z,15.28
2017-09-09T08:00:15.081Z,15.27
2017-09-09T08:01:14.373Z,15.27
2017-09-09T08:02:14.140Z,15.22
2017-09-09T08:03:13.704Z,15.28
2017-09-09T08:04:14.259Z,15.27
2017-09-09T08:05:15.855Z,15.31
2017-09-09T08:06:13.929Z,15.28
2017-09-09T08:07:13.924Z,15.22
2017-09-09T08:08:14.267Z,15.27
2017-09-09T08:09:14.249Z,15.35
2017-09-09T08:10:14.879Z,15.24
2017-09-09T08:11:13.927Z,15.24
2017-09-09T08:12:14.238Z,15.25
2017-09-09T08:13:14.235Z,15.11
2017-09-09T08:14:13.924Z,15.18
2017-09-09T08:15:15.436Z,15.15
2017-09-09T08:16:14.233Z,15.21
2017-09-09T08:17:14.230Z,15.21
2017-09-09T08:18:13.920Z,15.27
2017-09-09T08:19:14.227Z,15.21
2017-09-09T08:20:15.089Z,15.31
2017-09-09T08:21:14.233Z,15.31
2017-09-09T08:22:13.922Z,15.35
2017-09-09T08:23:13.949Z,15.27
2017-09-09T08:24:14.242Z,15.27
2017-09-09T08:25:14.677Z,15.31
2017-09-09T08:26:13.924Z,15.33
2017-09-09T08:27:13.922Z,15.27
2017-09-09T08:28:14.230Z,15.22
2017-09-09T08:29:13.921Z,15.31
2017-09-09T08:30:15.530Z,15.28
2017-09-09T08:31:14.238Z,15.28
2017-09-09T08:32:14.232Z,15.31
2017-09-09T08:33:14.235Z,15.22
2017-09-09T08:34:14.238Z,15.36
2017-09-09T08:35:15.597Z,15.27
2017-09-09T08:36:13.921Z,15.28
2017-09-09T08:37:14.228Z,15.28
2017-09-09T08:38:13.918Z,15.25
2017-09-09T08:39:13.919Z,15.33
2017-09-09T08:40:14.252Z,15.27
2017-09-09T08:41:14.225Z,15.31
2017-09-09T08:42:13.920Z,15.24
2017-09-09T08:43:14.229Z,15.25
2017-09-09T08:44:14.233Z,15.24
2017-09-09T08:45:14.798Z,15.28
2017-09-09T08:46:13.923Z,15.25
2017-09-09T08:47:14.227Z,15.15
2017-09-09T08:48:13.614Z,15.18
2017-09-09T08:49:14.237Z,15.17
2017-09-09T08:50:14.518Z,15.09
2017-09-09T08:51:13.916Z,15.18
2017-09-09T08:52:13.921Z,15.11
2017-09-09T08:53:14.244Z,15.19
2017-09-09T08:54:13.915Z,15.11
2017-09-09T08:55:15.179Z,15.17
2017-09-09T08:56:13.921Z,15.18
2017-09-09T08:57:13.606Z,15.17
2017-09-09T08:58:13.912Z,15.11
2017-09-09T08:59:14.224Z,15.14
2017-09-09T09:00:15.338Z,15.25
2017-09-09T09:01:13.914Z,15.15
2017-09-09T09:02:14.225Z,15.21
2017-09-09T09:03:13.912Z,15.24
2017-09-09T09:04:13.922Z,15.24
2017-09-09T09:05:15.251Z,15.21
2017-09-09T09:06:14.271Z,15.24
2017-09-09T09:07:13.601Z,15.24
2017-09-09T09:08:13.923Z,15.29
2017-09-09T09:09:13.912Z,15.21
2017-09-09T09:10:15.077Z,15.24
2017-09-09T09:11:13.915Z,15.36
2017-09-09T09:12:13.909Z,15.35
2017-09-09T09:13:14.229Z,15.44
2017-09-09T09:14:13.915Z,15.46
2017-09-09T09:15:15.236Z,15.58
2017-09-09T09:16:13.605Z,15.61
2017-09-09T09:17:14.224Z,15.73
2017-09-09T09:18:14.234Z,15.62
2017-09-09T09:19:13.607Z,15.67
2017-09-09T09:20:15.086Z,15.76
2017-09-09T09:21:13.600Z,15.79
2017-09-09T09:22:13.917Z,15.73
2017-09-09T09:23:13.910Z,15.72
2017-09-09T09:24:13.609Z,15.7
2017-09-09T09:25:15.673Z,15.77
2017-09-09T09:26:13.910Z,15.7
2017-09-09T09:27:13.931Z,15.65
2017-09-09T09:28:13.917Z,15.72
2017-09-09T09:29:14.224Z,15.72
2017-09-09T09:30:15.404Z,15.72
2017-09-09T09:31:13.910Z,15.67
2017-09-09T09:32:13.920Z,15.61
2017-09-09T09:33:14.242Z,15.58
2017-09-09T09:34:13.918Z,15.65
2017-09-09T09:35:14.977Z,15.76
2017-09-09T09:36:14.216Z,15.79
2017-09-09T09:37:14.230Z,15.77
2017-09-09T09:38:14.217Z,15.82
2017-09-09T09:39:14.228Z,15.95
2017-09-09T09:40:15.267Z,15.97
2017-09-09T09:41:13.913Z,15.97
2017-09-09T09:42:14.232Z,15.97
2017-09-09T09:43:13.916Z,16.05
2017-09-09T09:44:14.220Z,15.97
2017-09-09T09:45:14.345Z,16.01
2017-09-09T09:46:13.914Z,15.95
2017-09-09T09:47:13.608Z,16.05
2017-09-09T09:48:13.919Z,16.12
2017-09-09T09:49:14.235Z,16.1
2017-09-09T09:50:15.444Z,16.17
2017-09-09T09:51:14.219Z,16.17
2017-09-09T09:52:13.923Z,16.24
2017-09-09T09:53:13.914Z,16.2
2017-09-09T09:54:13.914Z,16.28
2017-09-09T09:55:15.183Z,16.35
2017-09-09T09:56:13.918Z,16.33
2017-09-09T09:57:13.923Z,16.41
2017-09-09T09:58:13.609Z,16.51
2017-09-09T09:59:14.226Z,16.54
2017-09-09T10:00:15.293Z,16.71
2017-09-09T10:01:14.225Z,16.79
2017-09-09T10:02:13.936Z,16.87
2017-09-09T10:03:13.926Z,16.83
2017-09-09T10:04:13.924Z,16.86
2017-09-09T10:05:15.465Z,16.9
2017-09-09T10:06:14.243Z,17.06
2017-09-09T10:07:13.926Z,17.06
2017-09-09T10:08:13.939Z,17.06
2017-09-09T10:09:14.241Z,17.05
2017-09-09T10:10:14.710Z,17.11
2017-09-09T10:11:13.937Z,17.15
2017-09-09T10:12:13.626Z,17.2
2017-09-09T10:13:14.245Z,17.2
2017-09-09T10:14:14.258Z,17.08
2017-09-09T10:15:14.341Z,17.05
2017-09-09T10:16:13.943Z,17.01
2017-09-09T10:17:13.948Z,17.04
2017-09-09T10:18:14.263Z,17.01
2017-09-09T10:19:13.941Z,17.05
2017-09-09T10:20:14.051Z,16.89
2017-09-09T10:21:13.640Z,16.93
2017-09-09T10:22:14.260Z,16.86
2017-09-09T10:23:13.954Z,16.91
2017-09-09T10:24:14.266Z,16.86
2017-09-09T10:25:15.221Z,16.83
2017-09-09T10:26:14.272Z,16.79
2017-09-09T10:27:14.264Z,16.84
2017-09-09T10:28:14.264Z,16.76
2017-09-09T10:29:13.984Z,16.84
2017-09-09T10:30:14.966Z,16.74
2017-09-09T10:31:14.270Z,16.74
2017-09-09T10:32:14.024Z,16.64
2017-09-09T10:33:13.956Z,16.72
2017-09-09T10:34:14.271Z,16.66
2017-09-09T10:35:15.109Z,16.72
2017-09-09T10:36:13.964Z,16.75
2017-09-09T10:37:13.960Z,16.71
2017-09-09T10:38:14.268Z,16.76
2017-09-09T10:39:14.271Z,16.79
2017-09-09T10:40:15.160Z,16.84
2017-09-09T10:41:14.272Z,16.78
2017-09-09T10:42:13.962Z,16.87
2017-09-09T10:43:14.279Z,16.89
2017-09-09T10:44:14.296Z,16.87
2017-09-09T10:45:15.659Z,16.87
2017-09-09T10:46:14.283Z,16.81
2017-09-09T10:47:13.966Z,16.9
2017-09-09T10:48:14.306Z,16.86
2017-09-09T10:49:14.277Z,16.93
2017-09-09T10:50:15.378Z,16.93
2017-09-09T10:51:13.658Z,16.99
2017-09-09T10:52:13.978Z,17.09
2017-09-09T10:53:14.291Z,17.16
2017-09-09T10:54:14.326Z,17.3
2017-09-09T10:55:15.689Z,17.3
2017-09-09T10:56:13.667Z,17.33
2017-09-09T10:57:13.982Z,17.49
2017-09-09T10:58:13.748Z,17.54
2017-09-09T10:59:14.287Z,17.63
2017-09-09T11:00:15.454Z,17.67
2017-09-09T11:01:13.984Z,17.63
2017-09-09T11:02:14.293Z,17.71
2017-09-09T11:03:13.985Z,17.67
2017-09-09T11:04:14.293Z,17.74
2017-09-09T11:05:15.414Z,17.76
2017-09-09T11:06:14.306Z,17.89
2017-09-09T11:07:14.301Z,18.04
2017-09-09T11:08:14.316Z,18.04
2017-09-09T11:09:13.992Z,18.16
2017-09-09T11:10:14.619Z,18.2
2017-09-09T11:11:14.001Z,18.33
2017-09-09T11:12:14.013Z,18.38
2017-09-09T11:13:14.317Z,18.59
2017-09-09T11:14:14.314Z,18.68
2017-09-09T11:15:15.295Z,18.71
2017-09-09T11:16:14.007Z,18.73
2017-09-09T11:17:14.014Z,18.68
2017-09-09T11:18:14.320Z,18.81
2017-09-09T11:19:14.319Z,18.88
2017-09-09T11:20:15.761Z,18.88
2017-09-09T11:21:14.013Z,18.8
2017-09-09T11:22:14.338Z,18.89
2017-09-09T11:23:14.030Z,19.02
2017-09-09T11:24:14.082Z,19.15
2017-09-09T11:25:14.790Z,19.08
2017-09-09T11:26:14.336Z,19.26
2017-09-09T11:27:14.033Z,19.3
2017-09-09T11:28:14.340Z,19.19
2017-09-09T11:29:13.727Z,19.27
2017-09-09T11:30:15.400Z,19.14
2017-09-09T11:31:14.362Z,19.24
2017-09-09T11:32:14.051Z,19.24
2017-09-09T11:33:14.364Z,19.27
2017-09-09T11:34:14.072Z,19.27
2017-09-09T11:35:15.220Z,19.33
2017-09-09T11:36:14.059Z,19.29
2017-09-09T11:37:14.061Z,19.31
2017-09-09T11:38:14.061Z,19.3
2017-09-09T11:39:14.064Z,19.37
2017-09-09T11:40:15.401Z,19.44
2017-09-09T11:41:14.075Z,19.52
2017-09-09T11:42:14.388Z,19.56
2017-09-09T11:43:14.080Z,19.7
2017-09-09T11:44:14.388Z,19.64
2017-09-09T11:45:15.177Z,19.74
2017-09-09T11:46:14.910Z,19.69
2017-09-09T11:47:14.093Z,19.67
2017-09-09T11:48:14.096Z,19.7
2017-09-09T11:49:14.402Z,19.67
2017-09-09T11:50:15.633Z,19.59
2017-09-09T11:51:14.410Z,19.58
2017-09-09T11:52:14.421Z,19.55
2017-09-09T11:53:13.801Z,19.48
2017-09-09T11:54:14.114Z,19.45
2017-09-09T11:55:15.621Z,19.58
2017-09-09T11:56:14.440Z,19.64
2017-09-09T11:57:14.431Z,19.85
2017-09-09T11:58:13.813Z,19.81
2017-09-09T11:59:14.458Z,19.91
2017-09-09T12:00:15.153Z,19.92
2017-09-09T12:01:14.140Z,19.96
2017-09-09T12:02:13.829Z,20.02
2017-09-09T12:03:14.300Z,20.06
2017-09-09T12:04:14.435Z,20.02
2017-09-09T12:05:15.271Z,19.89
2017-09-09T12:06:14.151Z,19.94
2017-09-09T12:07:14.470Z,19.95
2017-09-09T12:08:14.468Z,19.85
2017-09-09T12:09:14.158Z,19.82
2017-09-09T12:10:16.095Z,19.77
2017-09-09T12:11:14.477Z,19.77
2017-09-09T12:12:14.167Z,19.59
2017-09-09T12:13:14.174Z,19.47
2017-09-09T12:14:14.481Z,19.44
2017-09-09T12:15:15.011Z,19.44
2017-09-09T12:16:16.147Z,19.45
2017-09-09T12:17:14.215Z,19.44
2017-09-09T12:18:14.186Z,19.54
2017-09-09T12:19:14.506Z,19.69
2017-09-09T12:20:15.435Z,19.73
2017-09-09T12:21:14.573Z,19.81
2017-09-09T12:22:13.894Z,19.89
2017-09-09T12:23:13.890Z,19.86
2017-09-09T12:24:14.519Z,19.77
2017-09-09T12:25:14.491Z,19.73
2017-09-09T12:26:14.221Z,19.67
2017-09-09T12:27:14.527Z,19.55
2017-09-09T12:28:13.911Z,19.51
2017-09-09T12:29:14.251Z,19.41
2017-09-09T12:30:14.340Z,19.31
2017-09-09T12:31:14.235Z,19.24
2017-09-09T12:32:14.245Z,19.12
2017-09-09T12:33:14.232Z,19.16
2017-09-09T12:34:14.238Z,19.07
2017-09-09T12:35:15.549Z,18.95
2017-09-09T12:36:14.545Z,18.95
2017-09-09T12:37:14.237Z,18.95
2017-09-09T12:38:14.549Z,18.86
2017-09-09T12:39:14.242Z,18.71
2017-09-09T12:40:15.559Z,18.65
2017-09-09T12:41:14.557Z,18.66
2017-09-09T12:42:14.252Z,18.47
2017-09-09T12:43:14.559Z,18.44
2017-09-09T12:44:14.251Z,18.41
2017-09-09T12:45:15.776Z,18.44
2017-09-09T12:46:14.755Z,18.33
2017-09-09T12:47:14.568Z,18.22
2017-09-09T12:48:14.576Z,18.22
2017-09-09T12:49:14.580Z,18.16
2017-09-09T12:50:16.502Z,18.03
2017-09-09T12:51:14.575Z,18.01
2017-09-09T12:52:14.268Z,18.07
2017-09-09T12:53:14.580Z,18.08
2017-09-09T12:54:14.270Z,17.97
2017-09-09T12:55:14.855Z,18